Historique des stations

Station météo de Bellegarde

Altitude de la station : 121 m







Données météorologiques pour le 20/10/2021
Date
Heure
Températures Humidité Point de rosée Vitesse
du vent
Direction Rafales Windchill Pression Pluviométrie
Cumul
Date
Heure
Températures Humidité Point de rosée Vitesse
du vent
Direction Rafales Windchill Pression Pluviométrie
Cumul
20/10/2021 23:5613.8 °C86 %11.5 °C10 km/hOSO32 km/h11.51001 hPa2.4 mm
20/10/2021 23:4113.9 °C86 %11.6 °C19 km/hO47 km/h10.31001 hPa2.2 mm
20/10/2021 23:2616.2 °C85 %13.7 °C23 km/hONO40 km/h13.31001 hPa2.0 mm
20/10/2021 23:1118.1 °C75 %13.6 °C18 km/hOSO37 km/h15.81000 hPa0.8 mm
20/10/2021 22:5618.1 °C75 %13.6 °C11 km/hSO32 km/h17.21000 hPa0.8 mm
20/10/2021 22:4118.0 °C76 %13.7 °C24 km/hS44 km/h16.31000 hPa0.8 mm
20/10/2021 22:2617.8 °C78 %13.9 °C21 km/hSO29 km/h16.11001 hPa0.8 mm
20/10/2021 22:1117.6 °C81 %14.3 °C10 km/hSO27 km/h16.61001 hPa0.8 mm
20/10/2021 21:5617.6 °C82 %14.4 °C10 km/hSO27 km/h16.61001 hPa0.8 mm
20/10/2021 21:4117.6 °C82 %14.5 °C19 km/hSO27 km/h16.31002 hPa0.8 mm
20/10/2021 21:2617.6 °C84 %14.9 °C15 km/hOSO29 km/h17.21003 hPa0.8 mm
20/10/2021 21:1117.5 °C85 %14.9 °C11 km/hSSO29 km/h16.61003 hPa0.8 mm
20/10/2021 20:5617.4 °C86 %15.0 °C13 km/hSO26 km/h16.91003 hPa0.8 mm
20/10/2021 20:4117.4 °C86 %15.1 °C6 km/hSO26 km/h16.51004 hPa0.8 mm
20/10/2021 20:2617.5 °C86 %15.1 °C8 km/hSSO26 km/h17.11004 hPa0.8 mm
20/10/2021 20:1117.6 °C85 %15.0 °C15 km/hSSO23 km/h17.11004 hPa0.8 mm
20/10/2021 19:5617.4 °C86 %15.1 °C11 km/hSO26 km/h16.91004 hPa0.8 mm
20/10/2021 19:4117.3 °C86 %15.0 °C15 km/hSSO21 km/h17.31005 hPa0.8 mm
20/10/2021 19:2617.4 °C86 %15.0 °C6 km/hS24 km/h17.31005 hPa0.8 mm
20/10/2021 19:1117.4 °C86 %15.1 °C10 km/hSO21 km/h17.41006 hPa0.8 mm
20/10/2021 18:5617.6 °C86 %15.2 °C8 km/hSSO19 km/h17.61006 hPa0.8 mm
20/10/2021 18:4117.8 °C86 %15.4 °C11 km/hSSO19 km/h17.81006 hPa0.8 mm
20/10/2021 18:2618.1 °C85 %15.5 °C8 km/hSO24 km/h18.11006 hPa0.8 mm
20/10/2021 18:1118.2 °C85 %15.6 °C6 km/hSO23 km/h18.21007 hPa0.8 mm
20/10/2021 17:5618.3 °C84 %15.6 °C8 km/hSO21 km/h18.31007 hPa0.8 mm
20/10/2021 17:4118.4 °C84 %15.6 °C10 km/hSO24 km/h18.11007 hPa0.8 mm
20/10/2021 17:2618.4 °C84 %15.6 °C11 km/hSSO24 km/h18.41007 hPa0.8 mm
20/10/2021 17:1118.4 °C84 %15.7 °C13 km/hSSO21 km/h18.41008 hPa0.8 mm
20/10/2021 16:5618.5 °C84 %15.7 °C10 km/hSO23 km/h18.51008 hPa0.8 mm
20/10/2021 16:4118.7 °C83 %15.8 °C11 km/hSSO23 km/h18.71008 hPa0.8 mm
20/10/2021 16:2618.8 °C83 %15.9 °C15 km/hSSO24 km/h18.51008 hPa0.8 mm
20/10/2021 16:1119.1 °C83 %16.1 °C8 km/hSO27 km/h18.71009 hPa0.8 mm
20/10/2021 15:5619.3 °C82 %16.1 °C18 km/hSSO21 km/h18.91009 hPa0.8 mm
20/10/2021 15:4119.1 °C82 %16.0 °C16 km/hO31 km/h19.11009 hPa0.8 mm
20/10/2021 15:2619.1 °C83 %16.2 °C3 km/hSO26 km/h19.11010 hPa0.8 mm
20/10/2021 15:1118.9 °C83 %15.9 °C6 km/hSO16 km/h18.91010 hPa0.8 mm
20/10/2021 14:5618.8 °C84 %16.0 °C5 km/hSO23 km/h18.81010 hPa0.8 mm
20/10/2021 14:4118.4 °C85 %15.8 °C6 km/hO32 km/h18.41010 hPa0.8 mm
20/10/2021 14:2618.4 °C85 %15.8 °C11 km/hSSO24 km/h18.41010 hPa0.8 mm
20/10/2021 14:1118.7 °C84 %15.9 °C10 km/hSSO31 km/h18.71011 hPa0.8 mm
20/10/2021 13:5618.7 °C84 %16.0 °C15 km/hSSO21 km/h18.71011 hPa0.8 mm
20/10/2021 13:4118.6 °C85 %16.0 °C6 km/hSO23 km/h18.61011 hPa0.8 mm
20/10/2021 13:2618.4 °C85 %15.9 °C5 km/hSSO19 km/h18.41011 hPa0.8 mm
20/10/2021 13:1118.5 °C86 %16.1 °C11 km/hO26 km/h18.21011 hPa0.8 mm
20/10/2021 12:5618.6 °C86 %16.2 °C6 km/hOSO19 km/h18.61011 hPa0.8 mm
20/10/2021 12:4118.4 °C87 %16.2 °C8 km/hSO24 km/h18.41011 hPa0.8 mm
20/10/2021 12:2617.3 °C88 %15.3 °C10 km/hSO18 km/h17.31012 hPa0.8 mm
20/10/2021 12:1116.9 °C89 %15.1 °C10 km/hSO21 km/h16.81012 hPa0.8 mm
20/10/2021 11:5616.5 °C89 %14.7 °C8 km/hSO19 km/h16.41012 hPa0.8 mm
20/10/2021 11:4116.3 °C90 %14.6 °C8 km/hSO19 km/h16.21012 hPa0.8 mm
20/10/2021 11:2616.2 °C89 %14.4 °C11 km/hSSO19 km/h15.91012 hPa0.8 mm
20/10/2021 11:1115.9 °C90 %14.3 °C10 km/hSO16 km/h15.71012 hPa0.8 mm
20/10/2021 10:5615.5 °C90 %13.9 °C15 km/hSO18 km/h15.31012 hPa0.8 mm
20/10/2021 10:4115.4 °C90 %13.8 °C10 km/hS21 km/h14.91012 hPa0.8 mm
20/10/2021 10:2615.4 °C88 %13.5 °C11 km/hS21 km/h15.21012 hPa0.6 mm
20/10/2021 10:1115.7 °C87 %13.5 °C8 km/hSO16 km/h15.71012 hPa0.2 mm
20/10/2021 09:5616.2 °C82 %13.1 °C11 km/hSO23 km/h15.81013 hPa0.0 mm
20/10/2021 09:4115.6 °C82 %12.5 °C8 km/hSSO16 km/h15.61012 hPa0.0 mm
20/10/2021 09:2615.2 °C82 %12.2 °C6 km/hSO18 km/h15.21012 hPa0.0 mm
20/10/2021 09:1115.0 °C81 %11.8 °C3 km/hSSO11 km/h15.01012 hPa0.0 mm
20/10/2021 08:5614.7 °C81 %11.5 °C3 km/hS13 km/h14.71012 hPa0.0 mm
20/10/2021 08:4114.7 °C81 %11.5 °C3 km/hS11 km/h14.71012 hPa0.0 mm
20/10/2021 08:2614.8 °C80 %11.4 °C6 km/hSSO13 km/h14.81012 hPa0.0 mm
20/10/2021 08:1114.8 °C79 %11.2 °C8 km/hSSO16 km/h14.81012 hPa0.0 mm
20/10/2021 07:5614.8 °C79 %11.2 °C5 km/hSSO13 km/h14.81012 hPa0.0 mm
20/10/2021 07:4114.8 °C79 %11.2 °C10 km/hSO15 km/h14.71012 hPa0.0 mm
20/10/2021 07:2614.9 °C79 %11.3 °C5 km/hOSO13 km/h14.91013 hPa0.0 mm
20/10/2021 07:1114.7 °C79 %11.1 °C6 km/hSSO13 km/h14.71012 hPa0.0 mm
20/10/2021 06:5614.7 °C79 %11.1 °C5 km/hSO10 km/h14.71012 hPa0.0 mm
20/10/2021 06:4114.8 °C79 %11.2 °C8 km/hSO13 km/h14.81013 hPa0.0 mm
20/10/2021 06:2614.8 °C79 %11.2 °C10 km/hSSO15 km/h14.81013 hPa0.0 mm
20/10/2021 06:1114.7 °C79 %11.1 °C5 km/hSSO13 km/h14.71013 hPa0.0 mm
20/10/2021 05:5614.7 °C79 %11.1 °C3 km/hSSO15 km/h14.51013 hPa0.0 mm
20/10/2021 05:4114.6 °C80 %11.1 °C6 km/hSSO15 km/h14.61013 hPa0.0 mm
20/10/2021 05:2614.2 °C81 %11.0 °C6 km/hS13 km/h14.21013 hPa0.0 mm
20/10/2021 05:1114.2 °C81 %11.0 °C6 km/hS13 km/h14.21013 hPa0.0 mm
20/10/2021 04:5614.2 °C81 %11.0 °C5 km/hSSO13 km/h14.21013 hPa0.0 mm
20/10/2021 04:4114.4 °C80 %11.0 °C8 km/hSSO13 km/h14.41014 hPa0.0 mm
20/10/2021 04:2614.4 °C80 %11.0 °C3 km/hS13 km/h14.41014 hPa0.0 mm
20/10/2021 04:1114.5 °C80 %11.1 °C5 km/hSSO13 km/h14.51014 hPa0.0 mm
20/10/2021 03:5614.6 °C79 %11.0 °C5 km/hSSO11 km/h14.61014 hPa0.0 mm
20/10/2021 03:4114.9 °C78 %11.1 °C8 km/hS11 km/h14.91014 hPa0.0 mm
20/10/2021 03:2615.2 °C77 %11.2 °C10 km/hSSO11 km/h15.21014 hPa0.0 mm
20/10/2021 03:1115.3 °C77 %11.3 °C5 km/hSSO13 km/h15.31014 hPa0.0 mm
20/10/2021 02:5615.6 °C76 %11.4 °C6 km/hSO13 km/h15.61015 hPa0.0 mm
20/10/2021 02:4115.6 °C76 %11.3 °C3 km/hSSO16 km/h15.61015 hPa0.0 mm
20/10/2021 02:2615.7 °C75 %11.2 °C3 km/hS23 km/h15.71015 hPa0.0 mm
20/10/2021 02:1115.7 °C75 %11.2 °C5 km/hS15 km/h15.71015 hPa0.0 mm
20/10/2021 01:5615.5 °C75 %11.1 °C6 km/hSSO15 km/h15.51015 hPa0.0 mm
20/10/2021 01:4115.4 °C75 %11.0 °C11 km/hS11 km/h15.41015 hPa0.0 mm
20/10/2021 01:2615.3 °C75 %10.9 °C6 km/hSSO15 km/h15.31016 hPa0.0 mm
20/10/2021 01:1115.2 °C74 %10.6 °C2 km/hS11 km/h15.21016 hPa0.0 mm
20/10/2021 00:5615.6 °C73 %10.8 °C8 km/hS11 km/h15.61016 hPa0.0 mm
20/10/2021 00:4115.8 °C74 %11.2 °C3 km/hSSO11 km/h15.81017 hPa0.0 mm
20/10/2021 00:2616.1 °C74 %11.5 °C5 km/hSO8 km/h16.11017 hPa0.0 mm
20/10/2021 00:1116.4 °C73 %11.6 °C3 km/hSO11 km/h16.41017 hPa0.0 mm


Minima :

Température : 13.8 °C
Humidité : 73 %
Point de rosée : 10.6 °C
Vent moyen : 2 km/h
Windchill : 10.3
Pression atm. : 1000 hPa
Maxima :

Température : 19.3 °C
Humidité : 90 %
Point de rosée : 16.2 °C
Vent moyen : 24 km/h
Windchill : 19.1
Pression atm. : 1017 hPa
Rafales max : 47 km/h
Cumul de pluie sur 24H : 2.4 mm

Bellegarde est une commune du département Loiret (45).
La station météorologique du réseau de l'association la plus proche de Bellegarde est celle de Saint-Firmin-des-Bois
Site du propriétaire de la station : meteo-grognon.com



Icône Facebook Association Météo Centre Icône Twitter Association Météo Centre Icône Chaîne Youtube Association Météo Centre Icône contact Association Météo Centre Icône Insta Association Météo Centre